createdAt,value
2018-04-01T00:00:08.463Z,96079.20
2018-04-01T00:02:35.440Z,96079.63
2018-04-01T00:05:02.470Z,96082.70
2018-04-01T00:07:29.427Z,96084.55
2018-04-01T00:09:56.409Z,96087.95
2018-04-01T00:12:23.363Z,96091.02
2018-04-01T00:14:50.335Z,96093.27
2018-04-01T00:17:19.052Z,96097.01
2018-04-01T00:19:46.030Z,96091.31
2018-04-01T00:22:12.984Z,96097.25
2018-04-01T00:24:39.963Z,96096.64
2018-04-01T00:27:06.916Z,96098.48
2018-04-01T00:29:33.895Z,96097.18
2018-04-01T00:32:00.882Z,96103.27
2018-04-01T00:34:27.870Z,96094.72
2018-04-01T00:36:54.814Z,96097.95
2018-04-01T00:39:21.785Z,96105.63
2018-04-01T00:41:48.738Z,96108.96
2018-04-01T00:44:15.702Z,96109.03
2018-04-01T00:46:42.655Z,96116.54
2018-04-01T00:49:09.625Z,96107.68
2018-04-01T00:51:36.583Z,96107.92
2018-04-01T00:54:03.558Z,96113.41
2018-04-01T00:56:30.502Z,96115.30
2018-04-01T00:58:57.483Z,96119.03
2018-04-01T01:01:24.449Z,96110.65
2018-04-01T01:03:51.393Z,96118.63
2018-04-01T01:06:18.382Z,96118.03
2018-04-01T01:08:45.330Z,96114.86
2018-04-01T01:11:12.309Z,96111.49
2018-04-01T01:13:39.271Z,96111.05
2018-04-01T01:16:06.243Z,96110.95
2018-04-01T01:18:33.194Z,96110.11
2018-04-01T01:21:00.179Z,96110.48
2018-04-01T01:23:27.135Z,96122.94
2018-04-01T01:25:54.110Z,96115.84
2018-04-01T01:28:21.067Z,96119.74
2018-04-01T01:30:48.035Z,96122.27
2018-04-01T01:33:14.995Z,96125.47
2018-04-01T01:35:42.125Z,96121.22
2018-04-01T01:38:09.301Z,96124.77
2018-04-01T01:40:36.261Z,96128.00
2018-04-01T01:43:03.216Z,96119.88
2018-04-01T01:45:30.191Z,96126.61
2018-04-01T01:47:57.137Z,96126.72
2018-04-01T01:50:24.106Z,96119.47
2018-04-01T01:52:51.062Z,96133.55
2018-04-01T01:55:18.044Z,96141.80
2018-04-01T01:57:44.991Z,96136.69
2018-04-01T02:00:11.943Z,96148.07
2018-04-01T02:02:38.911Z,96145.61
2018-04-01T02:05:05.872Z,96145.81
2018-04-01T02:07:32.842Z,96148.98
2018-04-01T02:09:59.834Z,96152.83
2018-04-01T02:12:26.778Z,96149.95
2018-04-01T02:14:53.726Z,96154.10
2018-04-01T02:17:20.704Z,96158.05
2018-04-01T02:19:47.662Z,96149.22
2018-04-01T02:22:14.641Z,96158.69
2018-04-01T02:24:41.592Z,96161.14
2018-04-01T02:27:08.566Z,96157.88
2018-04-01T02:29:35.506Z,96169.63
2018-04-01T02:32:02.498Z,96162.59
2018-04-01T02:34:29.452Z,96167.20
2018-04-01T02:36:56.493Z,96162.63
2018-04-01T02:39:23.402Z,96170.61
2018-04-01T02:41:50.375Z,96168.56
2018-04-01T02:44:17.320Z,96173.23
2018-04-01T02:46:44.302Z,96177.52
2018-04-01T02:49:11.261Z,96176.27
2018-04-01T02:51:38.266Z,96173.78
2018-04-01T02:54:05.223Z,96182.87
2018-04-01T02:56:32.209Z,96183.66
2018-04-01T02:58:59.154Z,96187.77
2018-04-01T03:01:26.090Z,96186.48
2018-04-01T03:03:53.056Z,96194.30
2018-04-01T03:06:20.019Z,96193.39
2018-04-01T03:08:46.998Z,96194.47
2018-04-01T03:11:13.959Z,96189.11
2018-04-01T03:13:40.968Z,96190.69
2018-04-01T03:16:07.911Z,96192.14
2018-04-01T03:18:34.934Z,96195.88
2018-04-01T03:21:01.850Z,96194.36
2018-04-01T03:23:28.814Z,96192.78
2018-04-01T03:25:55.763Z,96198.20
2018-04-01T03:28:22.730Z,96196.08
2018-04-01T03:30:49.689Z,96200.44
2018-04-01T03:33:16.670Z,96202.22
2018-04-01T03:35:44.031Z,96205.45
2018-04-01T03:38:10.992Z,96208.82
2018-04-01T03:40:37.940Z,96217.55
2018-04-01T03:43:04.900Z,96221.96
2018-04-01T03:45:31.847Z,96223.34
2018-04-01T03:47:58.818Z,96205.41
2018-04-01T03:50:26.150Z,96226.17
2018-04-01T03:52:53.100Z,96238.74
2018-04-01T03:55:20.076Z,96236.18
2018-04-01T03:57:47.022Z,96237.42
2018-04-01T04:00:13.990Z,96240.46
2018-04-01T04:02:40.935Z,96249.25
2018-04-01T04:05:07.899Z,96240.46
2018-04-01T04:07:34.860Z,96254.68
2018-04-01T04:10:01.846Z,96263.78
2018-04-01T04:12:28.794Z,96258.36
2018-04-01T04:14:55.763Z,96260.38
2018-04-01T04:17:22.718Z,96263.67
2018-04-01T04:19:49.695Z,96259.97
2018-04-01T04:22:16.637Z,96262.97
2018-04-01T04:24:43.603Z,96270.05
2018-04-01T04:27:10.611Z,96266.71
2018-04-01T04:29:37.578Z,96265.16
2018-04-01T04:32:04.533Z,96274.50
2018-04-01T04:34:31.490Z,96275.34
2018-04-01T04:36:58.430Z,96273.83
2018-04-01T04:39:25.444Z,96278.81
2018-04-01T04:41:52.391Z,96278.02
2018-04-01T04:44:19.370Z,96283.37
2018-04-01T04:46:46.311Z,96279.59
2018-04-01T04:49:13.271Z,96288.69
2018-04-01T04:51:40.240Z,96290.41
2018-04-01T04:54:07.187Z,96297.08
2018-04-01T04:56:34.168Z,96289.13
2018-04-01T04:59:01.114Z,96299.98
2018-04-01T05:01:28.087Z,96299.31
2018-04-01T05:03:55.044Z,96308.08
2018-04-01T05:06:22.021Z,96308.14
2018-04-01T05:08:48.978Z,96313.06
2018-04-01T05:11:15.951Z,96314.75
2018-04-01T05:13:42.894Z,96319.70
2018-04-01T05:16:09.907Z,96326.04
2018-04-01T05:18:36.857Z,96323.58
2018-04-01T05:21:03.830Z,96317.85
2018-04-01T05:23:30.787Z,96332.38
2018-04-01T05:25:57.775Z,96339.05
2018-04-01T05:28:24.731Z,96341.58
2018-04-01T05:30:51.706Z,96340.49
2018-04-01T05:33:18.662Z,96351.19
2018-04-01T05:35:45.629Z,96358.34
2018-04-01T05:38:12.579Z,96358.81
2018-04-01T05:40:39.538Z,96363.67
2018-04-01T05:43:06.511Z,96367.02
2018-04-01T05:45:33.851Z,96375.00
2018-04-01T05:48:00.819Z,96384.39
2018-04-01T05:50:27.763Z,96387.86
2018-04-01T05:52:54.733Z,96391.78
2018-04-01T05:55:21.682Z,96397.89
2018-04-01T05:57:48.668Z,96395.94
2018-04-01T06:00:15.614Z,96394.60
2018-04-01T06:02:42.598Z,96405.60
2018-04-01T06:05:09.546Z,96404.19
2018-04-01T06:07:36.513Z,96411.02
2018-04-01T06:10:03.466Z,96401.63
2018-04-01T06:12:30.447Z,96408.95
2018-04-01T06:14:57.411Z,96409.84
2018-04-01T06:17:24.405Z,96412.91
2018-04-01T06:19:51.355Z,96421.45
2018-04-01T06:22:18.328Z,96417.05
2018-04-01T06:24:45.284Z,96422.45
2018-04-01T06:27:12.250Z,96424.99
2018-04-01T06:29:39.199Z,96419.09
2018-04-01T06:32:06.171Z,96418.26
2018-04-01T06:34:33.138Z,96418.28
2018-04-01T06:37:00.078Z,96421.27
2018-04-01T06:39:27.047Z,96429.14
2018-04-01T06:41:53.994Z,96430.48
2018-04-01T06:44:20.959Z,96421.38
2018-04-01T06:46:47.902Z,96439.50
2018-04-01T06:49:15.211Z,96438.66
2018-04-01T06:51:42.176Z,96442.95
2018-04-01T06:54:09.294Z,96449.91
2018-04-01T06:56:36.234Z,96452.44
2018-04-01T06:59:03.190Z,96454.43
2018-04-01T07:01:30.136Z,96467.73
2018-04-01T07:03:57.120Z,96461.32
2018-04-01T07:06:24.070Z,96456.36
2018-04-01T07:08:51.055Z,96462.37
2018-04-01T07:11:18.002Z,96481.91
2018-04-01T07:13:44.966Z,96488.20
2018-04-01T07:16:11.915Z,96482.80
2018-04-01T07:18:38.892Z,96477.19
2018-04-01T07:21:05.825Z,96485.63
2018-04-01T07:23:32.794Z,96482.05
2018-04-01T07:25:59.742Z,96475.20
2018-04-01T07:28:26.708Z,96486.44
2018-04-01T07:30:53.642Z,96490.13
2018-04-01T07:33:20.592Z,96492.39
2018-04-01T07:35:47.554Z,96498.16
2018-04-01T07:38:14.496Z,96498.88
2018-04-01T07:40:41.463Z,96497.63
2018-04-01T07:43:08.415Z,96496.95
2018-04-01T07:45:35.378Z,96502.76
2018-04-01T07:48:02.327Z,96506.60
2018-04-01T07:50:29.312Z,96512.81
2018-04-01T07:52:56.255Z,96519.88
2018-04-01T07:55:23.222Z,96522.44
2018-04-01T07:57:50.185Z,96519.71
2018-04-01T08:00:17.158Z,96522.68
2018-04-01T08:02:44.106Z,96529.71
2018-04-01T08:05:11.082Z,96535.76
2018-04-01T08:07:38.033Z,96534.07
2018-04-01T08:10:05.009Z,96539.27
2018-04-01T08:12:31.959Z,96530.28
2018-04-01T08:14:58.940Z,96536.03
2018-04-01T08:17:25.908Z,96540.59
2018-04-01T08:19:52.874Z,96542.20
2018-04-01T08:22:19.827Z,96549.39
2018-04-01T08:24:46.794Z,96548.89
2018-04-01T08:27:13.744Z,96541.97
2018-04-01T08:29:40.694Z,96554.80
2018-04-01T08:32:07.663Z,96559.11
2018-04-01T08:34:34.605Z,96559.22
2018-04-01T08:37:01.580Z,96569.30
2018-04-01T08:39:28.836Z,96567.61
2018-04-01T08:41:55.805Z,96571.19
2018-04-01T08:44:22.752Z,96570.70
2018-04-01T08:46:49.718Z,96575.95
2018-04-01T08:49:16.659Z,96564.39
2018-04-01T08:51:43.633Z,96580.16
2018-04-01T08:54:10.583Z,96579.39
2018-04-01T08:56:37.579Z,96582.41
2018-04-01T08:59:04.515Z,96576.64
2018-04-01T09:01:31.564Z,96588.38
2018-04-01T09:03:59.215Z,96583.36
2018-04-01T09:06:26.328Z,96581.02
2018-04-01T09:08:53.290Z,96575.05
2018-04-01T09:11:20.330Z,96572.72
2018-04-01T09:13:47.442Z,96574.96
2018-04-01T09:16:14.435Z,96574.95
2018-04-01T09:18:41.378Z,96580.89
2018-04-01T09:21:08.483Z,96568.45
2018-04-01T09:23:35.495Z,96580.09
2018-04-01T09:26:02.467Z,96576.08
2018-04-01T09:28:29.586Z,96580.42
2018-04-01T09:30:56.721Z,96574.94
2018-04-01T09:33:23.697Z,96572.75
2018-04-01T09:35:50.650Z,96583.80
2018-04-01T09:38:17.796Z,96593.42
2018-04-01T09:40:44.961Z,96598.00
2018-04-01T09:43:12.002Z,96598.19
2018-04-01T09:45:38.948Z,96601.09
2018-04-01T09:48:05.925Z,96603.16
2018-04-01T09:50:32.876Z,96598.42
2018-04-01T09:52:59.843Z,96591.14
2018-04-01T09:55:26.791Z,96603.94
2018-04-01T09:57:53.759Z,96589.03
2018-04-01T10:00:25.498Z,96586.14
2018-04-01T10:02:53.005Z,96572.48
2018-04-01T10:05:20.487Z,96577.58
2018-04-01T10:07:47.986Z,96576.02
2018-04-01T10:10:15.466Z,96571.63
2018-04-01T10:12:42.971Z,96565.98
2018-04-01T10:15:10.454Z,96580.54
2018-04-01T10:17:37.947Z,96588.02
2018-04-01T10:20:05.493Z,96602.81
2018-04-01T10:22:32.962Z,96608.02
2018-04-01T10:25:00.461Z,96602.92
2018-04-01T10:27:27.945Z,96605.44
2018-04-01T10:29:55.931Z,96619.93
2018-04-01T10:32:23.472Z,96645.27
2018-04-01T10:34:51.168Z,96669.48
2018-04-01T10:37:18.670Z,96640.73
2018-04-01T10:39:46.170Z,96652.59
2018-04-01T10:42:13.646Z,96655.63
2018-04-01T10:44:41.142Z,96651.69
2018-04-01T10:47:08.628Z,96651.41
2018-04-01T10:49:36.124Z,96628.82
2018-04-01T10:52:03.599Z,96618.06
2018-04-01T10:54:30.565Z,96603.32
2018-04-01T10:56:57.534Z,96609.29
2018-04-01T10:59:24.502Z,96590.83
2018-04-01T11:01:51.459Z,96615.28
2018-04-01T11:04:18.417Z,96614.27
2018-04-01T11:06:45.358Z,96611.70
2018-04-01T11:09:12.328Z,96602.20
2018-04-01T11:11:39.310Z,96621.70
2018-04-01T11:14:06.255Z,96615.44
2018-04-01T11:16:33.241Z,96615.23
2018-04-01T11:19:01.273Z,96613.98
2018-04-01T11:21:28.243Z,96615.78
2018-04-01T11:23:55.260Z,96618.75
2018-04-01T11:26:22.234Z,96621.50
2018-04-01T11:28:49.185Z,96603.66
2018-04-01T11:31:16.206Z,96609.03
2018-04-01T11:33:43.161Z,96601.50
2018-04-01T11:36:10.135Z,96607.49
2018-04-01T11:38:37.084Z,96592.81
2018-04-01T11:41:04.051Z,96615.19
2018-04-01T11:43:31.000Z,96599.59
2018-04-01T11:45:57.980Z,96593.33
2018-04-01T11:48:24.939Z,96595.96
2018-04-01T11:50:51.922Z,96585.76
2018-04-01T11:53:18.879Z,96588.88
2018-04-01T11:55:45.852Z,96594.67
2018-04-01T11:58:12.811Z,96608.41
2018-04-01T12:00:39.770Z,96600.20
2018-04-01T12:03:06.714Z,96605.04
2018-04-01T12:05:33.691Z,96607.96
2018-04-01T12:08:00.693Z,96608.26
2018-04-01T12:10:27.643Z,96614.08
2018-04-01T12:12:54.813Z,96604.11
2018-04-01T12:15:21.991Z,96612.88
2018-04-01T12:17:49.002Z,96605.09
2018-04-01T12:20:15.961Z,96607.77
2018-04-01T12:22:42.930Z,96619.53
2018-04-01T12:25:09.874Z,96612.55
2018-04-01T12:27:36.844Z,96621.71
2018-04-01T12:30:03.782Z,96609.29
2018-04-01T12:32:30.746Z,96602.99
2018-04-01T12:34:57.691Z,96610.36
2018-04-01T12:37:24.661Z,96613.69
2018-04-01T12:39:51.600Z,96614.83
2018-04-01T12:42:18.600Z,96615.14
2018-04-01T12:44:45.550Z,96606.97
2018-04-01T12:47:12.517Z,96602.17
2018-04-01T12:49:39.466Z,96615.95
2018-04-01T12:52:06.443Z,96599.45
2018-04-01T12:54:33.387Z,96608.46
2018-04-01T12:57:00.377Z,96606.56
2018-04-01T12:59:27.330Z,96614.73
2018-04-01T13:01:54.294Z,96605.70
2018-04-01T13:04:21.238Z,96586.67
2018-04-01T13:06:48.191Z,96602.89
2018-04-01T13:09:15.794Z,96590.89
2018-04-01T13:11:42.775Z,96580.83
2018-04-01T13:14:09.745Z,96570.64
2018-04-01T13:16:36.711Z,96582.05
2018-04-01T13:19:03.707Z,96601.20
2018-04-01T13:21:30.651Z,96612.81
2018-04-01T13:23:57.644Z,96625.29
2018-04-01T13:26:24.594Z,96654.77
2018-04-01T13:28:51.555Z,96696.38
2018-04-01T13:31:18.494Z,96745.53
2018-04-01T13:33:45.455Z,96758.39
2018-04-01T13:36:12.399Z,96762.04
2018-04-01T13:38:39.371Z,96763.54
2018-04-01T13:41:06.310Z,96760.70
2018-04-01T13:43:33.863Z,96743.52
2018-04-01T13:46:00.802Z,96741.69
2018-04-01T13:48:27.766Z,96743.26
2018-04-01T13:50:54.708Z,96725.73
2018-04-01T13:53:21.669Z,96717.17
2018-04-01T13:55:48.615Z,96719.41
2018-04-01T13:58:15.588Z,96723.94
2018-04-01T14:00:42.530Z,96734.97
2018-04-01T14:03:09.472Z,96740.19
2018-04-01T14:05:36.429Z,96740.93
2018-04-01T14:08:03.371Z,96730.59
2018-04-01T14:10:30.336Z,96732.07
2018-04-01T14:12:57.288Z,96735.45
2018-04-01T14:15:24.255Z,96722.78
2018-04-01T14:17:51.190Z,96731.75
2018-04-01T14:20:18.223Z,96731.78
2018-04-01T14:22:45.169Z,96731.39
2018-04-01T14:25:12.150Z,96732.44
2018-04-01T14:27:39.101Z,96735.84
2018-04-01T14:30:06.066Z,96731.50
2018-04-01T14:32:33.010Z,96724.27
2018-04-01T14:34:59.974Z,96729.77
2018-04-01T14:37:26.923Z,96732.86
2018-04-01T14:39:53.891Z,96727.38
2018-04-01T14:42:20.839Z,96730.81
2018-04-01T14:44:47.820Z,96726.95
2018-04-01T14:47:14.796Z,96723.67
2018-04-01T14:49:41.762Z,96725.85
2018-04-01T14:52:08.711Z,96728.56
2018-04-01T14:54:35.684Z,96730.14
2018-04-01T14:57:02.627Z,96737.16
2018-04-01T14:59:29.572Z,96741.76
2018-04-01T15:01:56.534Z,96727.02
2018-04-01T15:04:23.500Z,96748.19
2018-04-01T15:06:50.458Z,96748.70
2018-04-01T15:09:17.403Z,96727.06
2018-04-01T15:11:44.364Z,96754.98
2018-04-01T15:14:11.321Z,96757.48
2018-04-01T15:16:38.308Z,96771.27
2018-04-01T15:19:05.251Z,96813.37
2018-04-01T15:21:32.217Z,96796.41
2018-04-01T15:23:59.154Z,96792.98
2018-04-01T15:26:26.114Z,96786.13
2018-04-01T15:28:53.088Z,96758.67
2018-04-01T15:31:20.064Z,96785.66
2018-04-01T15:33:47.059Z,96784.79
2018-04-01T15:36:14.979Z,96782.05
2018-04-01T15:38:41.926Z,96785.66
2018-04-01T15:41:08.882Z,96773.97
2018-04-01T15:43:35.826Z,96790.63
2018-04-01T15:46:02.798Z,96799.56
2018-04-01T15:48:29.734Z,96794.97
2018-04-01T15:50:56.700Z,96799.02
2018-04-01T15:53:23.671Z,96795.03
2018-04-01T15:55:50.615Z,96793.91
2018-04-01T15:58:17.577Z,96803.70
2018-04-01T16:00:44.523Z,96804.98
2018-04-01T16:03:11.490Z,96803.90
2018-04-01T16:05:38.444Z,96803.05
2018-04-01T16:08:05.446Z,96801.69
2018-04-01T16:10:32.391Z,96812.14
2018-04-01T16:12:59.415Z,96801.27
2018-04-01T16:15:26.368Z,96798.95
2018-04-01T16:17:53.325Z,96792.80
2018-04-01T16:20:20.323Z,96790.30
2018-04-01T16:22:48.133Z,96797.20
2018-04-01T16:25:15.079Z,96799.47
2018-04-01T16:27:42.040Z,96835.70
2018-04-01T16:30:08.984Z,96816.08
2018-04-01T16:32:35.989Z,96797.84
2018-04-01T16:35:02.938Z,96823.78
2018-04-01T16:37:29.912Z,96825.23
2018-04-01T16:39:56.863Z,96822.03
2018-04-01T16:42:23.832Z,96831.50
2018-04-01T16:44:51.078Z,96827.36
2018-04-01T16:47:18.015Z,96851.96
2018-04-01T16:49:44.989Z,96855.55
2018-04-01T16:52:11.943Z,96862.27
2018-04-01T16:54:38.910Z,96868.38
2018-04-01T16:57:05.882Z,96886.39
2018-04-01T16:59:32.842Z,96899.57
2018-04-01T17:01:59.787Z,96892.95
2018-04-01T17:04:26.753Z,96895.00
2018-04-01T17:06:53.715Z,96897.98
2018-04-01T17:09:20.775Z,96902.80
2018-04-01T17:11:47.679Z,96905.41
2018-04-01T17:14:14.655Z,96896.61
2018-04-01T17:16:41.610Z,96904.59
2018-04-01T17:19:08.578Z,96921.05
2018-04-01T17:21:35.527Z,96947.40
2018-04-01T17:24:02.485Z,96965.77
2018-04-01T17:26:29.434Z,96973.48
2018-04-01T17:28:56.399Z,96965.02
2018-04-01T17:31:23.342Z,96966.06
2018-04-01T17:33:50.321Z,96992.30
2018-04-01T17:36:17.289Z,96982.68
2018-04-01T17:38:44.317Z,96988.74
2018-04-01T17:41:11.368Z,96981.09
2018-04-01T17:43:38.328Z,96989.17
2018-04-01T17:46:05.300Z,96979.62
2018-04-01T17:48:32.243Z,96988.59
2018-04-01T17:50:59.208Z,96980.23
2018-04-01T17:53:26.155Z,96977.08
2018-04-01T17:55:53.127Z,96973.35
2018-04-01T17:58:20.066Z,96969.74
2018-04-01T18:00:47.031Z,96973.53
2018-04-01T18:03:13.966Z,96978.83
2018-04-01T18:05:40.923Z,96991.95
2018-04-01T18:08:07.859Z,96995.30
2018-04-01T18:10:34.820Z,96999.67
2018-04-01T18:13:01.770Z,96838.50
2018-04-01T18:15:28.748Z,97010.52
2018-04-01T18:17:56.626Z,97018.91
2018-04-01T18:20:23.592Z,97021.45
2018-04-01T18:22:50.546Z,97031.94
2018-04-01T18:25:17.516Z,97028.45
2018-04-01T18:27:44.470Z,97035.42
2018-04-01T18:30:11.430Z,97044.71
2018-04-01T18:32:38.422Z,97042.39
2018-04-01T18:35:05.394Z,97049.76
2018-04-01T18:37:32.347Z,97041.12
2018-04-01T18:39:59.295Z,97043.61
2018-04-01T18:42:26.267Z,97056.98
2018-04-01T18:44:53.214Z,97066.09
2018-04-01T18:47:21.114Z,97071.00
2018-04-01T18:49:48.049Z,97073.44
2018-04-01T18:52:15.028Z,97080.11
2018-04-01T18:54:42.003Z,97081.77
2018-04-01T18:57:08.974Z,97075.56
2018-04-01T18:59:35.935Z,97086.09
2018-04-01T19:02:02.898Z,97096.55
2018-04-01T19:04:29.849Z,97087.15
2018-04-01T19:06:56.814Z,97098.80
2018-04-01T19:09:23.758Z,97100.85
2018-04-01T19:11:50.735Z,97108.02
2018-04-01T19:14:17.686Z,97113.69
2018-04-01T19:16:56.954Z,97112.53
2018-04-01T19:19:24.539Z,97115.38
2018-04-01T19:21:52.038Z,97119.80
2018-04-01T19:24:19.699Z,97126.34
2018-04-01T19:26:47.291Z,97129.14
2018-04-01T19:29:14.774Z,97131.69
2018-04-01T19:31:42.369Z,97130.97
2018-04-01T19:34:09.869Z,97111.98
2018-04-01T19:36:37.409Z,97141.78
2018-04-01T19:39:05.812Z,97149.94
2018-04-01T19:41:33.390Z,97148.38
2018-04-01T19:44:00.944Z,97155.96
2018-04-01T19:46:28.505Z,97154.90
2018-04-01T19:48:56.110Z,97153.37
2018-04-01T19:51:23.626Z,97161.83
2018-04-01T19:53:51.212Z,97163.02
2018-04-01T19:56:18.693Z,97161.02
2018-04-01T19:58:46.228Z,97162.35
2018-04-01T20:01:13.801Z,97163.77
2018-04-01T20:03:41.334Z,97162.61
2018-04-01T20:06:08.870Z,97165.59
2018-04-01T20:08:36.486Z,97139.64
2018-04-01T20:11:04.045Z,97163.75
2018-04-01T20:13:31.590Z,97166.14
2018-04-01T20:15:59.109Z,97155.73
2018-04-01T20:18:26.750Z,97160.16
2018-04-01T20:20:54.254Z,97160.78
2018-04-01T20:23:21.776Z,97161.36
2018-04-01T20:25:49.369Z,97170.65
2018-04-01T20:28:16.976Z,97163.42
2018-04-01T20:30:44.494Z,97173.21
2018-04-01T20:33:12.055Z,97178.09
2018-04-01T20:35:39.567Z,97165.89
2018-04-01T20:38:07.215Z,97172.86
2018-04-01T20:40:34.823Z,97173.48
2018-04-01T20:43:02.319Z,97166.50
2018-04-01T20:45:29.858Z,97169.67
2018-04-01T20:47:57.338Z,97172.41
2018-04-01T20:50:24.854Z,97172.30
2018-04-01T20:52:52.716Z,97177.23
2018-04-01T20:55:20.335Z,97173.54
2018-04-01T20:57:47.832Z,97182.39
2018-04-01T21:00:15.338Z,97185.41
2018-04-01T21:02:42.835Z,97195.51
2018-04-01T21:05:10.366Z,97195.43
2018-04-01T21:07:37.865Z,97200.80
2018-04-01T21:10:05.377Z,97192.83
2018-04-01T21:12:32.871Z,97200.73
2018-04-01T21:15:00.378Z,97203.10
2018-04-01T21:17:27.867Z,97208.53
2018-04-01T21:19:56.407Z,97207.68
2018-04-01T21:22:23.907Z,97206.97
2018-04-01T21:24:51.542Z,97206.05
2018-04-01T21:27:19.206Z,97205.82
2018-04-01T21:29:46.718Z,97209.97
2018-04-01T21:32:14.228Z,97211.30
2018-04-01T21:34:42.053Z,97214.28
2018-04-01T21:37:09.557Z,97217.97
2018-04-01T21:39:37.055Z,97218.78
2018-04-01T21:42:05.528Z,97215.72
2018-04-01T21:44:33.029Z,97221.97
2018-04-01T21:47:00.558Z,97217.47
2018-04-01T21:49:28.042Z,97224.59
2018-04-01T21:51:55.559Z,97221.78
2018-04-01T21:54:23.056Z,97230.95
2018-04-01T21:56:50.565Z,97227.58
2018-04-01T21:59:18.051Z,97225.20
2018-04-01T22:01:45.566Z,97224.72
2018-04-01T22:04:13.055Z,97223.45
2018-04-01T22:06:40.568Z,97234.17
2018-04-01T22:09:08.082Z,97231.79
2018-04-01T22:11:35.600Z,97230.14
2018-04-01T22:14:03.092Z,97233.86
2018-04-01T22:16:30.599Z,97235.75
2018-04-01T22:18:58.096Z,97242.19
2018-04-01T22:21:25.605Z,97245.97
2018-04-01T22:23:53.102Z,97251.89
2018-04-01T22:26:20.591Z,97254.44
2018-04-01T22:28:48.106Z,97254.30
2018-04-01T22:31:15.605Z,97250.00
2018-04-01T22:33:43.121Z,97248.84
2018-04-01T22:36:10.629Z,97255.48
2018-04-01T22:38:38.148Z,97253.84
2018-04-01T22:41:05.631Z,97249.53
2018-04-01T22:43:33.146Z,97246.52
2018-04-01T22:46:00.639Z,97250.79
2018-04-01T22:48:28.168Z,97254.52
2018-04-01T22:50:55.660Z,97255.33
2018-04-01T22:53:23.183Z,97255.59
2018-04-01T22:55:50.672Z,97261.33
2018-04-01T22:58:18.191Z,97262.75
2018-04-01T23:00:45.694Z,97264.17
2018-04-01T23:03:13.210Z,97261.06
2018-04-01T23:05:40.704Z,97257.50
2018-04-01T23:08:08.210Z,97263.73
2018-04-01T23:10:35.707Z,97260.35
2018-04-01T23:13:03.255Z,97261.11
2018-04-01T23:15:30.747Z,97262.49
2018-04-01T23:17:58.267Z,97258.34
2018-04-01T23:20:25.756Z,97264.97
2018-04-01T23:22:53.251Z,97260.27
2018-04-01T23:25:20.767Z,97262.40
2018-04-01T23:27:48.307Z,97260.75
2018-04-01T23:30:15.810Z,97259.38
2018-04-01T23:32:43.297Z,97260.75
2018-04-01T23:35:11.775Z,97257.42
2018-04-01T23:37:39.268Z,97269.91
2018-04-01T23:40:06.783Z,97266.75
2018-04-01T23:42:34.275Z,97262.53
2018-04-01T23:45:01.782Z,97270.22
2018-04-01T23:47:29.275Z,97265.37
2018-04-01T23:49:56.803Z,97260.09
2018-04-01T23:52:24.301Z,97263.46
2018-04-01T23:54:51.807Z,97256.80
2018-04-01T23:57:19.303Z,97261.69
2018-04-01T23:59:46.841Z,97260.58
